createdAt,value
2023-04-23T00:03:23.583Z,12.81
2023-04-23T00:08:26.784Z,12.85
2023-04-23T00:13:28.656Z,12.83
2023-04-23T00:18:30.262Z,12.79
2023-04-23T00:23:31.771Z,12.74
2023-04-23T00:28:33.508Z,12.62
2023-04-23T00:33:35.189Z,12.52
2023-04-23T00:38:37.438Z,12.33
2023-04-23T00:43:39.278Z,12.18
2023-04-23T00:48:41.404Z,12.02
2023-04-23T00:53:42.995Z,11.98
2023-04-23T00:58:45.464Z,11.95
2023-04-23T01:03:52.659Z,11.93
2023-04-23T01:08:54.734Z,11.92
2023-04-23T01:13:56.387Z,11.90
2023-04-23T01:18:58.045Z,11.84
2023-04-23T01:23:59.941Z,11.73
2023-04-23T01:29:01.916Z,11.70
2023-04-23T01:34:05.063Z,11.47
2023-04-23T01:39:06.872Z,11.29
2023-04-23T01:44:08.582Z,11.11
2023-04-23T01:49:10.643Z,11.01
2023-04-23T01:54:12.329Z,10.96
2023-04-23T01:59:13.887Z,10.90
2023-04-23T02:04:16.647Z,10.88
2023-04-23T02:09:18.441Z,10.95
2023-04-23T02:14:20.042Z,11.07
2023-04-23T02:19:22.097Z,11.04
2023-04-23T02:24:23.753Z,11.13
2023-04-23T02:29:25.330Z,11.09
2023-04-23T02:34:27.054Z,10.92
2023-04-23T02:39:28.668Z,10.85
2023-04-23T02:44:30.308Z,10.79
2023-04-23T02:49:31.823Z,10.81
2023-04-23T02:54:33.541Z,10.90
2023-04-23T02:59:35.128Z,10.91
2023-04-23T03:04:37.006Z,10.80
2023-04-23T03:09:39.104Z,10.61
2023-04-23T03:14:41.523Z,10.62
2023-04-23T03:19:43.911Z,10.70
2023-04-23T03:24:46.257Z,10.49
2023-04-23T03:29:47.964Z,10.37
2023-04-23T03:34:49.604Z,10.16
2023-04-23T03:39:51.483Z,10.04
2023-04-23T03:44:53.297Z,10.23
2023-04-23T03:49:56.377Z,10.31
2023-04-23T03:54:58.612Z,10.39
2023-04-23T04:00:06.302Z,10.58
2023-04-23T04:05:14.838Z,10.80
2023-04-23T04:10:16.580Z,11.05
2023-04-23T04:15:18.336Z,11.20
2023-04-23T04:20:20.022Z,11.30
2023-04-23T04:25:21.702Z,11.37
2023-04-23T04:30:24.811Z,11.54
2023-04-23T04:35:26.406Z,11.70
2023-04-23T04:40:27.911Z,11.79
2023-04-23T04:45:29.628Z,11.93
2023-04-23T04:50:31.362Z,12.05
2023-04-23T04:55:33.209Z,12.11
2023-04-23T05:00:34.976Z,12.16
2023-04-23T05:05:36.544Z,12.23
2023-04-23T05:10:38.546Z,12.36
2023-04-23T05:15:40.146Z,12.38
2023-04-23T05:20:41.793Z,12.48
2023-04-23T05:25:43.472Z,12.55
2023-04-23T05:30:44.972Z,12.63
2023-04-23T05:35:46.632Z,12.82
2023-04-23T05:40:48.550Z,12.89
2023-04-23T05:45:50.701Z,13.03
2023-04-23T05:50:52.286Z,13.23
2023-04-23T05:55:53.989Z,13.47
2023-04-23T06:00:55.686Z,13.71
2023-04-23T06:05:57.402Z,13.77
2023-04-23T06:10:59.179Z,13.79
2023-04-23T06:16:00.725Z,13.98
2023-04-23T06:21:02.314Z,14.02
2023-04-23T06:26:04.087Z,14.30
2023-04-23T06:31:06.168Z,14.48
2023-04-23T06:36:08.443Z,14.64
2023-04-23T06:41:11.552Z,14.85
2023-04-23T06:46:13.118Z,14.92
2023-04-23T06:51:14.888Z,15.08
2023-04-23T06:56:16.559Z,15.06
2023-04-23T07:01:18.548Z,15.30
2023-04-23T07:06:20.646Z,15.77
2023-04-23T07:11:22.246Z,16.09
2023-04-23T07:16:24.055Z,16.36
2023-04-23T07:21:25.616Z,16.36
2023-04-23T07:26:27.156Z,16.84
2023-04-23T07:31:28.714Z,18.18
2023-04-23T07:36:30.369Z,19.63
2023-04-23T07:41:32.979Z,20.36
2023-04-23T07:46:34.660Z,20.59
2023-04-23T07:51:36.284Z,21.07
2023-04-23T07:56:37.896Z,21.64
2023-04-23T08:01:39.586Z,21.48
2023-04-23T08:06:41.089Z,20.85
2023-04-23T08:11:42.585Z,21.35
2023-04-23T08:16:44.725Z,20.51
2023-04-23T08:21:46.941Z,19.53
2023-04-23T08:26:48.503Z,19.51
2023-04-23T08:31:50.209Z,21.09
2023-04-23T08:36:51.758Z,19.98
2023-04-23T08:42:02.262Z,20.81
2023-04-23T08:47:05.346Z,21.05
2023-04-23T08:52:15.954Z,20.98
2023-04-23T08:57:18.595Z,22.74
2023-04-23T09:02:20.298Z,22.04
2023-04-23T09:07:22.136Z,22.45
2023-04-23T09:12:23.707Z,21.59
2023-04-23T09:17:28.963Z,21.58
2023-04-23T09:22:48.084Z,20.07
2023-04-23T09:27:51.689Z,22.33
2023-04-23T09:32:53.932Z,21.55
2023-04-23T09:37:55.594Z,20.87
2023-04-23T09:42:57.180Z,20.20
2023-04-23T09:47:59.312Z,21.38
2023-04-23T09:53:01.242Z,19.99
2023-04-23T09:58:04.589Z,20.50
2023-04-23T10:03:07.326Z,20.49
2023-04-23T10:08:11.412Z,20.50
2023-04-23T10:13:14.388Z,19.69
2023-04-23T10:18:16.309Z,20.77
2023-04-23T10:23:21.954Z,20.41
2023-04-23T10:28:26.699Z,20.00
2023-04-23T10:33:33.609Z,19.54
2023-04-23T10:38:54.638Z,20.29
2023-04-23T10:43:59.380Z,20.64
2023-04-23T10:49:07.906Z,20.94
2023-04-23T10:54:10.010Z,20.36
2023-04-23T10:59:21.484Z,20.06
2023-04-23T11:04:25.012Z,19.93
2023-04-23T11:09:45.580Z,19.54
2023-04-23T11:14:48.992Z,19.46
2023-04-23T11:20:19.184Z,20.51
2023-04-23T11:25:21.653Z,21.80
2023-04-23T11:30:25.809Z,21.40
2023-04-23T11:35:27.879Z,21.64
2023-04-23T11:40:29.503Z,20.82
2023-04-23T11:45:31.039Z,21.05
2023-04-23T11:50:33.537Z,20.73
2023-04-23T11:55:35.500Z,21.91
2023-04-23T12:00:37.026Z,21.53
2023-04-23T12:05:44.804Z,22.10
2023-04-23T12:10:47.868Z,23.24
2023-04-23T12:15:55.090Z,22.64
2023-04-23T12:21:04.712Z,21.93
2023-04-23T12:26:14.034Z,22.05
2023-04-23T12:31:23.303Z,21.93
2023-04-23T12:36:27.845Z,21.72
2023-04-23T12:41:31.121Z,23.30
2023-04-23T12:46:33.863Z,22.56
2023-04-23T12:51:35.589Z,22.41
2023-04-23T12:56:37.133Z,22.53
2023-04-23T13:01:38.798Z,22.13
2023-04-23T13:06:41.635Z,21.99
2023-04-23T13:11:43.223Z,21.16
2023-04-23T13:16:45.010Z,21.13
2023-04-23T13:21:46.610Z,22.27
2023-04-23T13:26:48.173Z,22.52
2023-04-23T13:31:50.074Z,21.75
2023-04-23T13:36:51.703Z,21.04
2023-04-23T13:42:02.737Z,21.03
2023-04-23T13:47:10.877Z,20.72
2023-04-23T13:52:12.424Z,20.14
2023-04-23T13:57:14.112Z,19.47
2023-04-23T14:02:15.824Z,19.38
2023-04-23T14:07:17.611Z,19.12
2023-04-23T14:12:19.860Z,18.78
2023-04-23T14:17:21.394Z,18.75
2023-04-23T14:22:23.223Z,18.78
2023-04-23T14:27:24.762Z,18.69
2023-04-23T14:32:26.367Z,18.72
2023-04-23T14:37:27.889Z,18.43
2023-04-23T14:42:29.450Z,18.56
2023-04-23T14:47:31.005Z,18.56
2023-04-23T14:52:32.638Z,18.60
2023-04-23T14:57:34.169Z,18.91
2023-04-23T15:02:35.812Z,18.97
2023-04-23T15:07:38.338Z,18.86
2023-04-23T15:12:39.895Z,18.42
2023-04-23T15:17:41.552Z,18.13
2023-04-23T15:22:46.258Z,18.38
2023-04-23T15:27:47.925Z,18.29
2023-04-23T15:32:49.525Z,18.24
2023-04-23T15:37:51.265Z,18.01
2023-04-23T15:42:54.258Z,17.29
2023-04-23T15:47:55.841Z,16.85
2023-04-23T15:52:57.534Z,16.46
2023-04-23T15:57:59.017Z,16.22
2023-04-23T16:03:01.355Z,16.02
2023-04-23T16:08:03.563Z,15.93
2023-04-23T16:13:05.249Z,15.85
2023-04-23T16:18:06.834Z,14.12
2023-04-23T16:23:08.428Z,13.36
2023-04-23T16:28:10.024Z,13.55
2023-04-23T16:33:11.542Z,13.58
2023-04-23T16:38:13.115Z,13.56
2023-04-23T16:43:14.640Z,13.59
2023-04-23T16:48:16.141Z,13.81
2023-04-23T16:53:17.638Z,13.86
2023-04-23T16:58:19.158Z,13.93
2023-04-23T17:03:20.756Z,13.86
2023-04-23T17:08:22.320Z,13.77
2023-04-23T17:13:23.788Z,13.79
2023-04-23T17:18:25.290Z,13.67
2023-04-23T17:23:26.897Z,13.65
2023-04-23T17:28:28.422Z,13.75
2023-04-23T17:33:29.918Z,13.77
2023-04-23T17:38:31.472Z,13.76
2023-04-23T17:43:33.218Z,13.76
2023-04-23T17:48:34.744Z,13.68
2023-04-23T17:53:36.420Z,13.66
2023-04-23T17:58:38.496Z,13.68
2023-04-23T18:03:40.323Z,13.61
2023-04-23T18:08:43.513Z,13.66
2023-04-23T18:13:45.061Z,13.69
2023-04-23T18:18:46.592Z,13.86
2023-04-23T18:23:48.219Z,13.88
2023-04-23T18:28:49.776Z,13.86
2023-04-23T18:33:59.439Z,13.90
2023-04-23T18:39:01.021Z,13.90
2023-04-23T18:44:02.570Z,13.95
2023-04-23T18:49:22.842Z,13.96
2023-04-23T18:54:24.376Z,13.98
2023-04-23T18:59:25.849Z,14.03
2023-04-23T19:04:27.423Z,14.03
2023-04-23T19:09:29.177Z,13.93
2023-04-23T19:14:30.680Z,13.90
2023-04-23T19:19:32.222Z,13.88
2023-04-23T19:24:33.766Z,13.81
2023-04-23T19:29:35.273Z,13.94
2023-04-23T19:34:36.834Z,14.08
2023-04-23T19:39:38.349Z,14.02
2023-04-23T19:44:39.842Z,14.23
2023-04-23T19:49:41.868Z,14.28
2023-04-23T19:54:43.731Z,14.23
2023-04-23T19:59:48.598Z,14.10
2023-04-23T20:04:50.094Z,14.04
2023-04-23T20:09:51.629Z,14.10
2023-04-23T20:14:53.106Z,14.22
2023-04-23T20:19:54.626Z,14.18
2023-04-23T20:24:56.904Z,14.00
2023-04-23T20:29:58.452Z,14.28
2023-04-23T20:34:59.914Z,14.24
2023-04-23T20:40:01.638Z,14.18
2023-04-23T20:45:03.397Z,14.25
2023-04-23T20:50:05.390Z,14.23
2023-04-23T20:55:07.429Z,14.01
2023-04-23T21:00:09.353Z,14.09
2023-04-23T21:05:11.987Z,14.10
2023-04-23T21:10:13.486Z,14.02
2023-04-23T21:15:15.752Z,14.37
2023-04-23T21:20:17.285Z,14.22
2023-04-23T21:25:18.933Z,14.23
2023-04-23T21:30:49.838Z,14.14
2023-04-23T21:35:53.126Z,14.15
2023-04-23T21:40:54.663Z,14.19
2023-04-23T21:45:56.228Z,14.09
2023-04-23T21:50:57.712Z,14.07
2023-04-23T21:55:59.245Z,14.17
2023-04-23T22:01:01.034Z,14.07
2023-04-23T22:06:03.362Z,14.08
2023-04-23T22:11:06.309Z,13.98
2023-04-23T22:16:20.357Z,13.85
2023-04-23T22:21:28.701Z,13.71
2023-04-23T22:26:30.281Z,13.62
2023-04-23T22:31:31.876Z,13.46
2023-04-23T22:36:33.606Z,13.27
2023-04-23T22:41:35.105Z,13.28
2023-04-23T22:46:36.760Z,13.26
2023-04-23T22:51:38.321Z,13.06
2023-04-23T22:56:40.625Z,13.05
2023-04-23T23:01:43.056Z,13.06
2023-04-23T23:06:44.677Z,12.98
2023-04-23T23:11:46.247Z,12.84
2023-04-23T23:16:47.783Z,12.82
2023-04-23T23:21:49.369Z,12.86
2023-04-23T23:26:51.049Z,12.87
2023-04-23T23:31:52.613Z,12.85
2023-04-23T23:36:55.329Z,12.82
2023-04-23T23:41:58.380Z,12.79
2023-04-23T23:47:19.153Z,12.79
2023-04-23T23:52:20.658Z,12.76
2023-04-23T23:57:22.198Z,12.78
